Calumet City, Illinois
Current Conditions -  °F | °C
As of 7:45 AM on Monday 26 Jan 2015 (Local Time) from KGYY Reporting Station
Broken Clouds Broken Clouds  
Wind Chill:   Ceiling: 15000
Heat Index: 18°   Visibility: 10mi
Dew Point:   Wind: 6mph
Humidity: 68%   Direction: 150°SSE
Pressure: 29.98"   Gusts: NA
Location:  41.62°N, 87.53°W
Report Text: KGYY 261345Z 15005KT 10SM BKN150 M08/M13 A2998
Loading
Personal Weather Stations






























Interactive Weather Map New forecast layout! Learn more

10-Day Weather Forecast

Advertisements
Track Severe Weather on mobile